Terminal Aerodrome Forecast
Issued by NWS

Current Version | Previous Version | Text Only | Print | Product List | Glossary On
Versions: 1 2 3 4 5 6 7 8 9 10 11 12 13 14 15 16 17 18 19 20 21 22 23 24 25 26 27 28 29 30 31 32 33 34 35 36 37 38 39 40 41 42 43 44 45 46 47 48 49 50
000
FTUS45 KGJT 021130
TAFEGE
TAF
KEGE 021130Z 0212/0312 09005KT P6SM VCFG SCT015 BKN070
      TEMPO 0212/0215 6SM BR BKN015
     FM021500 00000KT P6SM FEW025 SCT070
     FM021800 25009KT P6SM SCT090
     FM022000 24013G21KT P6SM FEW090
     FM030300 12005KT P6SM SKC
      AMD LTD TO CLD VIS AND WIND TIL 021300=

USA.gov is the U.S. government's official web portal to all federal, state and local government web resources and services.